Time;durP1;ratioP1;P1;durP2;ratioP2;P2;SDS_P1;SDS_P2;PMS_P1;PMS_P2;Temp;Humidity;BMP_temperature;BMP_pressure;BME280_temperature;BME280_humidity;BME280_pressure;Samples;Min_cycle;Max_cycle;Signal;HPM_P1;HPM_P2
2021/12/19 00:00:29;;;;;;;32.00;21.43;;;7.60;99.90;;;;;;2614755;54;20411;-73
2021/12/19 00:08:32;;;;;;;29.23;19.63;;;7.90;99.90;;;;;;2615655;54;20422;-73
2021/12/19 00:10:59;;;;;;;28.73;18.77;;;7.90;99.90;;;;;;2613425;54;20416;-73
2021/12/19 00:13:26;;;;;;;30.00;19.37;;;7.80;99.90;;;;;;2614206;54;20482;-73
2021/12/19 00:15:53;;;;;;;40.53;21.10;;;8.10;99.90;;;;;;2614890;54;20427;-72
2021/12/19 00:18:19;;;;;;;31.60;21.17;;;8.10;99.90;;;;;;2614270;54;20489;-73
2021/12/19 00:20:45;;;;;;;30.00;20.13;;;8.10;99.90;;;;;;2615089;54;20396;-76
2021/12/19 00:23:12;;;;;;;30.57;20.43;;;7.80;99.90;;;;;;2614388;47;20427;-74
2021/12/19 00:25:38;;;;;;;37.27;22.27;;;7.70;99.90;;;;;;2613836;52;20430;-74
2021/12/19 00:28:05;;;;;;;29.90;19.00;;;8.10;99.90;;;;;;2614272;47;20798;-73
2021/12/19 00:30:32;;;;;;;30.40;20.23;;;8.10;99.90;;;;;;2615374;39;20841;-73
2021/12/19 00:32:59;;;;;;;36.90;20.57;;;7.80;99.90;;;;;;2613469;54;20442;-74
2021/12/19 00:35:27;;;;;;;29.23;20.20;;;8.00;99.90;;;;;;2614587;46;20453;-73
2021/12/19 00:37:53;;;;;;;27.00;17.30;;;7.90;99.90;;;;;;2615102;54;20388;-74
2021/12/19 00:40:20;;;;;;;25.40;17.47;;;8.00;99.90;;;;;;2614100;47;20431;-73
2021/12/19 00:43:01;;;;;;;22.70;15.20;;;8.20;99.90;;;;;;2614672;54;20971;-74
2021/12/19 00:45:31;;;;;;;22.00;15.00;;;7.90;99.90;;;;;;2614696;47;20468;-75
2021/12/19 00:47:58;;;;;;;22.50;16.87;;;8.00;99.90;;;;;;2614812;54;20427;-73
2021/12/19 00:50:26;;;;;;;22.80;17.00;;;7.90;99.90;;;;;;2614866;47;20430;-72
2021/12/19 00:52:51;;;;;;;21.90;17.60;;;7.90;99.90;;;;;;2615353;54;20424;-75
2021/12/19 00:55:20;;;;;;;24.90;16.60;;;7.80;99.90;;;;;;2614083;54;20448;-72
2021/12/19 00:57:46;;;;;;;22.67;15.73;;;7.90;99.90;;;;;;2615140;47;20190;-73
2021/12/19 01:00:16;;;;;;;21.53;14.43;;;8.00;99.90;;;;;;2614915;52;20446;-73
2021/12/19 01:02:42;;;;;;;23.33;16.60;;;8.10;99.90;;;;;;2615374;54;20422;-75
2021/12/19 01:05:10;;;;;;;25.00;16.80;;;8.00;99.90;;;;;;2617092;39;20810;-73
2021/12/19 01:07:36;;;;;;;25.00;16.53;;;8.00;99.90;;;;;;2615747;39;20810;-73
2021/12/19 01:10:06;;;;;;;24.60;18.20;;;7.80;99.90;;;;;;2612917;54;20502;-73
2021/12/19 01:12:33;;;;;;;28.23;19.33;;;7.80;99.90;;;;;;2615725;54;20469;-73
2021/12/19 01:14:59;;;;;;;28.70;18.10;;;7.70;99.90;;;;;;2615735;54;21007;-73
2021/12/19 01:17:25;;;;;;;25.27;18.00;;;7.60;99.90;;;;;;2615090;47;20407;-74
2021/12/19 01:19:51;;;;;;;25.63;16.73;;;7.50;99.90;;;;;;2615086;47;20461;-73
2021/12/19 01:22:17;;;;;;;37.17;21.37;;;7.30;99.90;;;;;;2615543;54;20433;-74
2021/12/19 01:24:43;;;;;;;26.27;18.47;;;7.40;99.90;;;;;;2615504;54;20429;-73
2021/12/19 01:27:09;;;;;;;23.80;16.90;;;7.40;99.90;;;;;;2614544;39;20926;-72
2021/12/19 01:29:35;;;;;;;26.63;17.03;;;7.30;99.90;;;;;;2615387;54;20451;-72
2021/12/19 01:32:01;;;;;;;30.47;18.80;;;7.20;99.90;;;;;;2614608;54;20888;-71
2021/12/19 01:34:26;;;;;;;29.93;18.70;;;7.20;99.90;;;;;;2616031;54;20155;-75
2021/12/19 01:36:54;;;;;;;30.33;18.47;;;7.50;99.90;;;;;;2615823;54;20428;-74
2021/12/19 01:39:20;;;;;;;29.10;17.70;;;7.60;99.90;;;;;;2616450;47;20428;-73
2021/12/19 01:41:51;;;;;;;23.90;17.50;;;7.70;99.90;;;;;;2614943;54;20419;-73
2021/12/19 01:44:18;;;;;;;31.53;17.87;;;7.60;99.90;;;;;;2616422;39;20609;-73
2021/12/19 01:46:46;;;;;;;27.70;17.43;;;7.50;99.90;;;;;;2615777;54;20423;-74
2021/12/19 01:49:17;;;;;;;28.23;16.80;;;7.50;99.90;;;;;;2615801;54;20394;-74
2021/12/19 01:51:43;;;;;;;28.47;16.00;;;7.80;99.90;;;;;;2614886;54;20472;-73
2021/12/19 01:54:10;;;;;;;25.63;16.30;;;7.70;99.90;;;;;;2614855;54;20423;-74
2021/12/19 01:56:38;;;;;;;27.90;17.37;;;8.00;99.90;;;;;;2615253;39;20847;-73
2021/12/19 01:59:06;;;;;;;25.23;16.53;;;7.90;99.90;;;;;;2615261;54;20418;-73
2021/12/19 02:01:44;;;;;;;28.60;17.13;;;7.90;99.90;;;;;;2614372;54;20436;-73
2021/12/19 02:04:12;;;;;;;28.43;17.67;;;8.00;99.90;;;;;;2615861;54;20396;-72
2021/12/19 02:06:38;;;;;;;26.00;17.30;;;8.00;99.90;;;;;;2614417;39;20813;-74
2021/12/19 02:09:06;;;;;;;28.07;17.77;;;8.00;99.90;;;;;;2615242;54;20423;-74
2021/12/19 02:11:37;;;;;;;30.20;17.60;;;8.00;99.90;;;;;;2614271;54;20162;-74
2021/12/19 02:14:04;;;;;;;28.90;16.53;;;7.90;99.90;;;;;;2615069;54;20436;-74
2021/12/19 02:16:31;;;;;;;28.30;17.57;;;7.80;99.90;;;;;;2615269;39;20821;-74
2021/12/19 02:18:59;;;;;;;36.63;20.07;;;7.80;99.90;;;;;;2614372;50;21011;-74
2021/12/19 02:21:25;;;;;;;32.87;19.83;;;7.90;99.90;;;;;;2613227;54;20388;-74
2021/12/19 02:23:51;;;;;;;34.10;18.40;;;7.80;99.90;;;;;;2615057;54;20391;-74
2021/12/19 02:26:17;;;;;;;32.10;19.33;;;7.90;99.90;;;;;;2615318;39;20884;-73
2021/12/19 02:28:43;;;;;;;27.23;18.50;;;7.90;99.90;;;;;;2615402;54;20384;-74
2021/12/19 02:31:10;;;;;;;29.77;19.30;;;8.10;99.90;;;;;;2615771;54;20995;-74
2021/12/19 02:33:40;;;;;;;31.23;20.40;;;7.90;99.90;;;;;;2614171;54;20430;-74
2021/12/19 02:49:27;;;;;;;30.40;19.10;;;7.80;99.90;;;;;;2614053;47;20423;-74
2021/12/19 02:51:54;;;;;;;30.73;19.03;;;7.70;99.90;;;;;;2613662;54;20372;-73
2021/12/19 02:54:22;;;;;;;27.13;18.30;;;7.70;99.90;;;;;;2614721;54;20399;-73
2021/12/19 02:56:50;;;;;;;29.60;18.87;;;7.70;99.90;;;;;;2614580;39;20799;-77
2021/12/19 02:59:15;;;;;;;22.73;15.30;;;7.70;99.90;;;;;;2614646;39;20475;-73
2021/12/19 03:01:44;;;;;;;19.20;14.93;;;7.90;99.90;;;;;;2614979;39;20765;-73
2021/12/19 03:04:10;;;;;;;19.67;12.80;;;7.70;99.90;;;;;;2615578;54;20499;-74
2021/12/19 03:06:41;;;;;;;16.70;11.03;;;7.60;99.90;;;;;;2614189;54;20426;-73
2021/12/19 03:09:09;;;;;;;12.17;9.33;;;7.60;99.90;;;;;;2614491;54;21283;-76
2021/12/19 03:19:48;;;;;;;18.70;11.97;;;7.50;99.90;;;;;;2615092;54;20461;-73
2021/12/19 03:22:14;;;;;;;20.80;13.73;;;7.60;99.90;;;;;;2613724;46;20423;-77
2021/12/19 03:24:40;;;;;;;21.30;13.60;;;7.50;99.90;;;;;;2613074;39;21304;-73
2021/12/19 03:27:07;;;;;;;17.33;12.17;;;7.50;99.90;;;;;;2612641;54;20250;-76
2021/12/19 03:29:33;;;;;;;13.87;11.30;;;7.40;99.90;;;;;;2614733;47;20170;-73
2021/12/19 03:32:02;;;;;;;14.60;11.43;;;7.40;99.90;;;;;;2615358;31;21073;-74
2021/12/19 03:34:28;;;;;;;15.37;11.90;;;7.70;99.90;;;;;;2614807;54;20155;-74
2021/12/19 03:36:54;;;;;;;16.30;11.37;;;7.90;99.90;;;;;;2614674;54;20982;-73
2021/12/19 03:39:32;;;;;;;16.20;11.00;;;8.20;99.90;;;;;;2615043;51;20159;-73
2021/12/19 03:41:58;;;;;;;16.70;10.70;;;7.90;99.90;;;;;;2612481;54;20956;-74
2021/12/19 03:44:24;;;;;;;15.23;11.40;;;7.90;99.90;;;;;;2615413;54;20530;-73
2021/12/19 03:46:51;;;;;;;15.80;11.77;;;7.70;99.90;;;;;;2615255;54;20186;-74
2021/12/19 03:49:19;;;;;;;13.50;10.27;;;7.50;99.90;;;;;;2614477;47;20436;-75
2021/12/19 03:51:45;;;;;;;14.70;10.60;;;7.80;99.90;;;;;;2613623;50;20394;-73
2021/12/19 03:54:12;;;;;;;18.03;11.93;;;7.90;99.90;;;;;;2614118;47;20423;-75
2021/12/19 03:56:38;;;;;;;12.97;9.20;;;7.90;99.90;;;;;;2614969;54;20420;-73
2021/12/19 03:59:04;;;;;;;16.33;10.43;;;7.70;99.90;;;;;;2615083;54;20430;-73
2021/12/19 04:01:30;;;;;;;14.33;9.20;;;7.90;99.90;;;;;;2614052;31;20630;-74
2021/12/19 04:03:57;;;;;;;15.60;10.50;;;7.80;99.90;;;;;;2615168;54;20143;-74
2021/12/19 04:06:23;;;;;;;10.73;9.47;;;7.90;99.90;;;;;;2614434;54;20795;-74
2021/12/19 04:08:50;;;;;;;19.63;11.87;;;7.60;99.90;;;;;;2614217;54;20402;-75
2021/12/19 04:11:16;;;;;;;17.23;11.47;;;7.50;99.90;;;;;;2614289;54;20407;-74
2021/12/19 04:13:42;;;;;;;15.83;10.63;;;7.50;99.90;;;;;;2614184;54;20463;-74
2021/12/19 04:16:08;;;;;;;17.20;11.90;;;7.40;99.90;;;;;;2613569;54;20982;-73
2021/12/19 04:18:34;;;;;;;15.77;9.77;;;7.40;99.90;;;;;;2615012;54;20155;-74
2021/12/19 04:21:00;;;;;;;16.37;10.87;;;7.60;99.90;;;;;;2613963;54;20234;-76
2021/12/19 04:23:30;;;;;;;15.67;11.10;;;7.60;99.90;;;;;;2614739;46;20435;-73
2021/12/19 04:25:57;;;;;;;14.10;10.37;;;7.50;99.90;;;;;;2614944;54;20174;-74
2021/12/19 04:28:22;;;;;;;13.30;9.40;;;7.40;99.90;;;;;;2614699;53;20424;-74
2021/12/19 04:30:48;;;;;;;13.00;9.70;;;7.50;99.90;;;;;;2614316;54;20428;-74
2021/12/19 04:33:16;;;;;;;12.37;8.00;;;7.50;99.90;;;;;;2613736;47;20169;-75
2021/12/19 04:35:44;;;;;;;12.83;8.83;;;7.50;99.90;;;;;;2616458;54;20150;-74
2021/12/19 04:41:01;;;;;;;14.30;8.50;;;7.60;99.90;;;;;;2615503;54;20423;-76
2021/12/19 04:57:26;;;;;;;13.47;6.60;;;7.20;99.90;;;;;;2613975;54;20478;-73
2021/12/19 05:00:11;;;;;;;8.53;5.70;;;7.10;99.90;;;;;;2614730;39;20821;-75
2021/12/19 05:16:03;;;;;;;8.13;4.47;;;7.40;99.90;;;;;;2614525;54;21123;-73
2021/12/19 05:18:32;;;;;;;8.43;6.03;;;7.60;99.90;;;;;;2611463;51;20439;-74
2021/12/19 05:21:03;;;;;;;9.20;6.50;;;7.50;99.90;;;;;;2615379;54;20387;-73
2021/12/19 05:25:58;;;;;;;12.07;7.57;;;7.20;99.90;;;;;;2614552;54;20423;-74
2021/12/19 05:28:26;;;;;;;15.90;9.17;;;7.10;99.90;;;;;;2615200;39;20969;-73
2021/12/19 05:30:52;;;;;;;16.07;9.20;;;7.00;99.90;;;;;;2614728;54;20395;-75
2021/12/19 05:33:18;;;;;;;17.80;9.30;;;6.90;99.90;;;;;;2615611;54;20410;-74
2021/12/19 05:46:35;;;;;;;10.10;6.80;;;7.00;99.90;;;;;;2614922;47;20431;-73
2021/12/19 05:49:04;;;;;;;12.93;6.10;;;6.90;99.90;;;;;;2614648;54;20500;-75
2021/12/19 05:51:30;;;;;;;10.53;5.03;;;6.90;99.90;;;;;;2612756;54;20155;-74
2021/12/19 05:53:56;;;;;;;10.53;5.47;;;6.90;99.90;;;;;;2615403;54;20404;-73
2021/12/19 05:56:22;;;;;;;9.23;5.30;;;6.80;99.90;;;;;;2614807;47;20570;-74
2021/12/19 05:58:48;;;;;;;9.13;5.47;;;6.90;99.90;;;;;;2614525;54;20404;-74
2021/12/19 06:01:14;;;;;;;9.87;6.53;;;7.20;99.90;;;;;;2612878;47;20497;-73
2021/12/19 06:03:40;;;;;;;7.70;5.37;;;7.10;99.90;;;;;;2614720;51;20498;-74
2021/12/19 06:06:06;;;;;;;6.27;4.53;;;7.20;99.90;;;;;;2615035;54;20671;-73
2021/12/19 06:08:32;;;;;;;6.27;4.60;;;7.10;99.90;;;;;;2613185;54;20181;-72
2021/12/19 06:10:58;;;;;;;6.37;4.23;;;7.00;99.90;;;;;;2614706;54;20416;-73
2021/12/19 06:13:24;;;;;;;8.10;4.40;;;7.00;99.90;;;;;;2613945;47;20222;-74
2021/12/19 06:15:53;;;;;;;6.43;5.20;;;7.10;99.90;;;;;;2615125;54;20226;-73
2021/12/19 06:18:19;;;;;;;5.97;4.10;;;7.00;99.90;;;;;;2614591;54;20511;-73
2021/12/19 06:20:45;;;;;;;8.13;5.33;;;7.10;99.90;;;;;;2615228;54;20424;-74
2021/12/19 06:23:11;;;;;;;8.53;6.53;;;7.20;99.90;;;;;;2614924;47;20439;-75
2021/12/19 06:25:37;;;;;;;11.20;7.00;;;6.90;99.90;;;;;;2615052;54;20189;-74
2021/12/19 06:28:03;;;;;;;9.10;5.20;;;7.00;99.90;;;;;;2614111;54;20465;-73
2021/12/19 06:30:30;;;;;;;5.80;4.87;;;7.00;99.90;;;;;;2615326;54;20982;-73
2021/12/19 06:32:56;;;;;;;9.80;5.90;;;7.10;99.90;;;;;;2615326;54;21066;-74
2021/12/19 06:35:28;;;;;;;9.33;6.23;;;7.00;99.90;;;;;;2614550;54;20406;-72
2021/12/19 06:37:55;;;;;;;12.60;6.00;;;7.00;99.90;;;;;;2614660;54;20432;-73
2021/12/19 06:40:22;;;;;;;8.93;6.30;;;7.00;99.90;;;;;;2615440;54;20395;-74
2021/12/19 06:42:48;;;;;;;11.20;7.20;;;6.90;99.90;;;;;;2614093;54;20531;-75
2021/12/19 06:45:14;;;;;;;10.73;6.40;;;7.10;99.90;;;;;;2615567;54;20940;-76
2021/12/19 06:47:40;;;;;;;11.67;7.40;;;6.90;99.90;;;;;;2614676;54;20462;-73
2021/12/19 06:50:07;;;;;;;9.43;6.27;;;6.80;99.90;;;;;;2615639;39;20790;-74
2021/12/19 06:52:34;;;;;;;8.33;5.97;;;6.80;99.90;;;;;;2614091;54;20438;-75
2021/12/19 06:55:00;;;;;;;16.00;7.33;;;6.60;99.90;;;;;;2614903;47;20510;-73
2021/12/19 06:57:26;;;;;;;7.93;5.73;;;6.70;99.90;;;;;;2614716;47;20459;-73
2021/12/19 06:59:52;;;;;;;13.10;6.57;;;7.10;99.90;;;;;;2614900;54;20495;-73
2021/12/19 07:02:18;;;;;;;10.90;6.53;;;7.10;99.90;;;;;;2613423;47;20434;-73
2021/12/19 07:04:44;;;;;;;9.30;6.40;;;7.30;99.90;;;;;;2614849;54;20500;-76
2021/12/19 07:07:11;;;;;;;12.90;7.90;;;7.50;99.90;;;;;;2611694;54;20181;-74
2021/12/19 07:09:36;;;;;;;11.13;7.90;;;7.40;99.90;;;;;;2612638;54;20457;-73
2021/12/19 07:12:02;;;;;;;9.53;7.10;;;7.10;99.90;;;;;;2613106;47;20880;-72
2021/12/19 07:14:28;;;;;;;19.37;8.67;;;7.00;99.90;;;;;;2613668;54;20154;-74
2021/12/19 07:16:54;;;;;;;14.40;7.43;;;7.30;99.90;;;;;;2613551;54;21035;-73
2021/12/19 07:19:20;;;;;;;15.43;8.20;;;7.50;99.90;;;;;;2613649;54;20415;-73
2021/12/19 07:21:46;;;;;;;11.00;8.20;;;7.10;99.90;;;;;;2611095;54;20158;-74
2021/12/19 07:24:12;;;;;;;18.93;8.67;;;7.00;99.90;;;;;;2609708;54;20473;-73
2021/12/19 07:26:38;;;;;;;11.17;7.90;;;6.80;99.90;;;;;;2613258;39;20565;-74
2021/12/19 07:29:04;;;;;;;14.33;8.70;;;6.80;99.90;;;;;;2647866;36;20210;-73
2021/12/19 07:31:31;;;;;;;10.13;7.20;;;6.90;99.90;;;;;;2612358;47;20258;-73
2021/12/19 07:33:58;;;;;;;13.40;7.93;;;7.30;99.90;;;;;;2610809;47;20391;-73
2021/12/19 07:36:29;;;;;;;12.37;8.63;;;7.40;99.90;;;;;;2612974;39;20861;-73
2021/12/19 07:39:02;;;;;;;18.00;9.00;;;7.90;99.90;;;;;;2613934;54;20408;-74
2021/12/19 07:41:28;;;;;;;15.77;8.00;;;7.80;99.90;;;;;;2612438;54;20479;-73
2021/12/19 07:43:54;;;;;;;14.60;9.23;;;7.80;99.90;;;;;;2613656;54;20411;-74
2021/12/19 07:46:20;;;;;;;17.27;9.50;;;7.70;99.90;;;;;;2615056;39;20776;-73
2021/12/19 07:48:46;;;;;;;16.00;8.53;;;7.30;99.90;;;;;;2614336;47;20437;-76
2021/12/19 07:51:12;;;;;;;13.17;8.77;;;7.50;99.90;;;;;;2613060;54;20154;-73
2021/12/19 07:53:38;;;;;;;18.80;9.97;;;8.00;99.90;;;;;;2614033;39;20564;-73
2021/12/19 07:56:04;;;;;;;14.60;9.07;;;7.60;99.90;;;;;;2612556;54;20162;-72
2021/12/19 07:58:30;;;;;;;17.30;9.90;;;7.50;99.90;;;;;;2611963;51;20439;-73
2021/12/19 08:00:56;;;;;;;17.80;9.90;;;7.40;99.90;;;;;;2612467;54;20426;-73
2021/12/19 08:03:21;;;;;;;17.57;9.10;;;7.60;99.90;;;;;;2610772;54;20155;-73
2021/12/19 08:05:48;;;;;;;18.53;10.40;;;7.30;99.90;;;;;;2613487;39;20901;-74
2021/12/19 08:08:25;;;;;;;20.03;10.10;;;7.10;99.90;;;;;;2613119;54;20546;-73
2021/12/19 08:13:40;;;;;;;17.00;10.07;;;7.10;99.90;;;;;;2613901;54;20423;-73
2021/12/19 08:16:07;;;;;;;16.40;10.80;;;6.80;99.90;;;;;;2613844;54;20995;-74
2021/12/19 08:18:34;;;;;;;15.90;6.70;;;6.70;99.90;;;;;;2613637;47;20295;-74
2021/12/19 08:21:00;;;;;;;15.00;9.67;;;6.60;99.90;;;;;;2613413;54;20395;-72
2021/12/19 08:23:26;;;;;;;20.80;10.70;;;6.70;99.90;;;;;;2611933;54;21055;-74
2021/12/19 08:25:51;;;;;;;23.17;12.17;;;6.80;99.90;;;;;;2610694;54;20408;-73
2021/12/19 08:28:17;;;;;;;21.10;10.13;;;6.90;99.90;;;;;;2613180;46;20434;-74
2021/12/19 08:30:43;;;;;;;23.37;12.10;;;6.90;99.90;;;;;;2614368;54;20740;-75
2021/12/19 08:33:09;;;;;;;27.53;12.77;;;6.90;99.90;;;;;;2614367;54;20151;-73
2021/12/19 08:35:35;;;;;;;22.73;10.07;;;6.90;99.90;;;;;;2613912;54;20407;-73
2021/12/19 08:38:01;;;;;;;22.30;13.13;;;6.80;99.90;;;;;;2614148;39;20547;-73
2021/12/19 08:40:28;;;;;;;17.87;10.90;;;6.90;99.90;;;;;;2611379;39;20236;-73
2021/12/19 08:42:54;;;;;;;28.43;12.20;;;7.00;99.90;;;;;;2614909;54;20404;-73
2021/12/19 08:45:21;;;;;;;22.20;12.73;;;7.10;99.90;;;;;;2614130;54;20951;-75
2021/12/19 08:47:47;;;;;;;26.30;14.07;;;7.00;99.90;;;;;;2615131;47;20411;-74
2021/12/19 08:50:13;;;;;;;25.10;13.20;;;7.10;99.90;;;;;;2615115;54;20419;-76
2021/12/19 08:52:39;;;;;;;23.20;13.70;;;7.30;99.90;;;;;;2613713;47;20180;-73
2021/12/19 08:55:06;;;;;;;31.17;13.80;;;7.00;99.90;;;;;;2613888;47;20408;-74
2021/12/19 08:57:32;;;;;;;30.23;14.70;;;6.90;99.90;;;;;;2614718;47;20435;-74
2021/12/19 08:59:59;;;;;;;24.00;13.63;;;6.90;99.90;;;;;;2614536;47;20440;-73
2021/12/19 09:02:25;;;;;;;27.03;13.10;;;7.10;99.90;;;;;;2613781;54;20420;-74
2021/12/19 09:04:51;;;;;;;27.07;12.10;;;7.20;99.90;;;;;;2613273;54;20510;-73
2021/12/19 09:07:18;;;;;;;22.10;12.50;;;7.10;99.90;;;;;;2613613;39;20829;-74
2021/12/19 09:09:48;;;;;;;30.23;13.10;;;7.40;99.90;;;;;;2614170;54;20396;-75
2021/12/19 09:12:15;;;;;;;19.60;11.33;;;8.00;99.90;;;;;;2614456;54;20947;-75
2021/12/19 09:14:40;;;;;;;24.77;13.60;;;7.70;99.90;;;;;;2615242;54;20534;-73
2021/12/19 09:17:06;;;;;;;16.17;9.77;;;7.70;99.90;;;;;;2613355;54;20404;-74
2021/12/19 09:19:32;;;;;;;17.90;10.53;;;7.40;99.90;;;;;;2614805;54;20159;-74
2021/12/19 09:21:58;;;;;;;23.80;11.97;;;7.60;99.90;;;;;;2614118;54;20495;-76
2021/12/19 09:24:24;;;;;;;18.60;11.07;;;7.70;99.90;;;;;;2615612;54;20154;-73
2021/12/19 09:26:50;;;;;;;19.43;11.30;;;7.90;99.90;;;;;;2614737;54;20415;-73
2021/12/19 09:29:16;;;;;;;21.80;12.57;;;7.80;99.90;;;;;;2615225;54;20415;-74
2021/12/19 09:31:41;;;;;;;19.37;11.77;;;7.60;99.90;;;;;;2614116;47;20197;-75
2021/12/19 09:34:07;;;;;;;18.63;12.57;;;7.40;99.90;;;;;;2614881;39;20802;-76
2021/12/19 09:36:35;;;;;;;16.17;10.47;;;7.40;99.90;;;;;;2614867;54;20159;-75
2021/12/19 09:39:02;;;;;;;14.40;10.07;;;7.40;99.90;;;;;;2614947;54;20463;-74
2021/12/19 09:41:32;;;;;;;16.13;9.80;;;7.50;99.90;;;;;;2614746;54;20419;-75
2021/12/19 09:44:02;;;;;;;11.77;8.23;;;7.60;99.90;;;;;;2615396;54;20507;-76
2021/12/19 09:46:37;;;;;;;11.43;6.33;;;7.70;99.90;;;;;;2614935;47;20423;-74
2021/12/19 09:49:05;;;;;;;10.80;6.33;;;7.80;99.90;;;;;;2615650;54;20423;-74
2021/12/19 09:51:31;;;;;;;8.33;5.30;;;7.70;99.90;;;;;;2614669;54;20438;-73
2021/12/19 09:53:57;;;;;;;7.70;4.13;;;8.00;99.90;;;;;;2615573;39;20825;-74
2021/12/19 09:56:23;;;;;;;4.83;3.57;;;7.90;99.90;;;;;;2614348;54;20227;-73
2021/12/19 09:58:50;;;;;;;3.40;2.27;;;7.70;99.90;;;;;;2614853;54;20155;-74
2021/12/19 10:01:16;;;;;;;5.40;3.43;;;7.50;99.90;;;;;;2611985;54;20448;-73
2021/12/19 10:03:42;;;;;;;8.03;6.63;;;7.30;99.90;;;;;;2611354;47;20430;-75
2021/12/19 10:06:25;;;;;;;5.07;3.57;;;7.50;99.90;;;;;;2613964;47;20497;-76
2021/12/19 10:09:11;;;;;;;5.80;3.80;;;7.50;99.90;;;;;;2613170;49;20539;-77
2021/12/19 10:14:32;;;;;;;6.00;4.70;;;7.80;99.90;;;;;;2612983;54;20538;-74
2021/12/19 10:17:05;;;;;;;6.43;5.80;;;7.60;99.90;;;;;;2613665;54;20426;-75
2021/12/19 10:19:50;;;;;;;13.73;11.47;;;7.50;99.90;;;;;;2614624;47;20432;-74
2021/12/19 10:22:37;;;;;;;14.03;12.60;;;7.30;99.90;;;;;;2613831;54;20424;-74
2021/12/19 10:25:09;;;;;;;22.67;17.20;;;7.50;99.90;;;;;;2614302;54;20950;-73
2021/12/19 10:27:43;;;;;;;18.87;15.17;;;7.50;99.90;;;;;;2613304;54;20396;-74
2021/12/19 10:30:20;;;;;;;12.87;11.03;;;7.80;99.90;;;;;;2614309;47;20419;-74
2021/12/19 10:33:03;;;;;;;14.30;11.07;;;7.90;99.90;;;;;;2614309;54;20403;-73
2021/12/19 10:35:41;;;;;;;14.00;12.27;;;7.40;99.90;;;;;;2609108;46;20423;-74
2021/12/19 10:38:23;;;;;;;13.83;11.70;;;7.30;99.90;;;;;;2613838;54;21057;-74
2021/12/19 10:41:09;;;;;;;12.83;10.43;;;7.60;99.90;;;;;;2613257;46;20435;-74
2021/12/19 10:43:44;;;;;;;11.63;10.13;;;7.80;99.90;;;;;;2614031;54;20518;-74
2021/12/19 10:46:10;;;;;;;11.13;9.93;;;7.70;99.90;;;;;;2614247;39;20801;-74
2021/12/19 10:48:39;;;;;;;12.87;10.53;;;7.90;99.90;;;;;;2614577;47;20412;-74
2021/12/19 10:51:16;;;;;;;10.17;9.23;;;7.70;99.90;;;;;;2615182;39;20584;-75
2021/12/19 10:53:52;;;;;;;10.47;8.90;;;7.70;99.90;;;;;;2614370;46;20433;-74
2021/12/19 10:56:19;;;;;;;9.47;8.60;;;7.70;99.90;;;;;;2614279;54;20414;-76
2021/12/19 10:58:56;;;;;;;8.43;7.17;;;7.80;99.90;;;;;;2613079;54;20403;-75
2021/12/19 11:01:31;;;;;;;7.33;6.73;;;8.10;99.90;;;;;;2613426;39;20845;-74
2021/12/19 11:04:03;;;;;;;7.10;6.27;;;8.40;99.90;;;;;;2614330;54;20975;-73
2021/12/19 11:06:29;;;;;;;5.53;5.10;;;8.40;99.90;;;;;;2614071;50;20435;-74
2021/12/19 11:08:58;;;;;;;8.80;5.73;;;8.20;99.90;;;;;;2615011;54;20458;-73
2021/12/19 11:11:30;;;;;;;7.50;4.90;;;8.00;99.90;;;;;;2614599;54;20424;-73
2021/12/19 11:13:56;;;;;;;5.70;5.10;;;7.90;99.90;;;;;;2614260;54;21004;-76
2021/12/19 11:16:22;;;;;;;7.63;5.10;;;7.90;99.90;;;;;;2613350;47;20412;-74
2021/12/19 11:18:48;;;;;;;4.33;3.93;;;8.20;99.90;;;;;;2615178;39;20805;-73
2021/12/19 11:21:17;;;;;;;4.00;3.70;;;8.00;99.90;;;;;;2613350;54;20411;-75
2021/12/19 11:23:43;;;;;;;3.87;3.37;;;8.00;99.90;;;;;;2614387;39;21027;-77
2021/12/19 11:26:09;;;;;;;3.60;3.10;;;8.10;99.90;;;;;;2614333;46;20470;-75
2021/12/19 11:28:37;;;;;;;3.67;3.37;;;7.80;99.90;;;;;;2613645;54;20412;-74
2021/12/19 11:31:04;;;;;;;3.00;2.70;;;7.80;99.90;;;;;;2610840;54;20479;-75
2021/12/19 11:33:46;;;;;;;3.57;3.27;;;8.00;99.90;;;;;;2612976;54;20423;-74
2021/12/19 11:36:14;;;;;;;4.70;4.20;;;8.10;99.90;;;;;;2650210;36;20947;-75
2021/12/19 11:38:43;;;;;;;3.60;2.77;;;7.80;99.90;;;;;;2614072;54;20399;-73
2021/12/19 11:41:09;;;;;;;4.03;3.73;;;7.60;99.90;;;;;;2613710;54;20411;-75
2021/12/19 11:43:38;;;;;;;3.47;3.20;;;7.60;99.90;;;;;;2613389;54;20412;-74
2021/12/19 11:46:13;;;;;;;5.03;4.63;;;7.60;99.90;;;;;;2613635;46;20425;-75
2021/12/19 11:48:40;;;;;;;5.80;5.07;;;7.70;99.90;;;;;;2615651;54;20442;-74
2021/12/19 11:51:24;;;;;;;6.87;6.27;;;7.90;99.90;;;;;;2612494;39;20841;-74
2021/12/19 11:53:49;;;;;;;4.07;3.67;;;8.20;99.90;;;;;;2613247;47;20423;-76
2021/12/19 11:56:17;;;;;;;7.03;6.43;;;8.30;99.90;;;;;;2614751;54;20405;-73
2021/12/19 11:58:52;;;;;;;4.40;4.00;;;8.60;99.90;;;;;;2614157;54;20415;-75
2021/12/19 12:01:46;;;;;;;4.27;3.70;;;8.30;99.90;;;;;;2612990;54;20855;-74
2021/12/19 12:04:17;;;;;;;5.13;4.27;;;8.10;99.90;;;;;;2614571;54;20470;-73
2021/12/19 12:06:54;;;;;;;4.80;4.30;;;7.90;99.90;;;;;;2613775;47;20417;-73
2021/12/19 12:09:24;;;;;;;5.70;5.30;;;7.70;99.90;;;;;;2615363;31;20903;-74
2021/12/19 12:12:17;;;;;;;4.93;4.57;;;7.80;99.90;;;;;;2614123;39;20497;-73
2021/12/19 12:14:57;;;;;;;3.47;3.23;;;7.80;99.90;;;;;;2614726;46;20416;-74
2021/12/19 12:17:33;;;;;;;4.23;3.83;;;7.80;99.90;;;;;;2612927;54;20419;-73
2021/12/19 12:20:08;;;;;;;3.83;3.40;;;7.90;99.90;;;;;;2614405;39;20857;-74
2021/12/19 12:22:36;;;;;;;3.40;3.00;;;8.00;99.90;;;;;;2614129;54;20425;-75
2021/12/19 12:25:02;;;;;;;4.63;3.63;;;7.70;99.90;;;;;;2614172;54;20415;-74
2021/12/19 12:27:54;;;;;;;4.00;3.40;;;7.80;99.90;;;;;;2613224;47;20432;-73
2021/12/19 12:30:24;;;;;;;3.30;3.00;;;7.80;99.90;;;;;;2614339;54;20431;-72
2021/12/19 12:32:52;;;;;;;8.20;7.33;;;7.80;99.90;;;;;;2614268;47;20936;-72
2021/12/19 12:35:19;;;;;;;6.00;4.13;;;7.80;99.90;;;;;;2613669;54;20505;-74
2021/12/19 12:37:48;;;;;;;6.93;5.80;;;7.80;99.90;;;;;;2613555;47;20959;-72
2021/12/19 12:40:24;;;;;;;7.33;6.67;;;7.50;99.90;;;;;;2614272;54;20419;-76
2021/12/19 12:43:05;;;;;;;4.73;4.00;;;7.70;99.90;;;;;;2613960;54;20500;-76
2021/12/19 12:45:48;;;;;;;3.13;2.80;;;7.50;99.90;;;;;;2614281;47;20455;-74
2021/12/19 12:48:29;;;;;;;2.90;2.70;;;7.40;99.90;;;;;;2614064;54;20416;-75
2021/12/19 12:50:55;;;;;;;4.60;3.87;;;7.30;99.90;;;;;;2613547;47;20407;-74
2021/12/19 12:53:45;;;;;;;4.10;3.50;;;7.30;99.90;;;;;;2613662;54;20379;-74
2021/12/19 12:56:14;;;;;;;6.20;4.27;;;7.40;99.90;;;;;;2615031;54;20924;-75
2021/12/19 12:58:46;;;;;;;4.07;3.10;;;7.60;99.90;;;;;;2613680;54;20459;-74
2021/12/19 13:01:15;;;;;;;4.93;3.40;;;7.50;99.90;;;;;;2614065;54;20495;-75
2021/12/19 13:04:03;;;;;;;6.10;5.13;;;7.40;99.90;;;;;;2613518;47;20419;-74
2021/12/19 13:06:35;;;;;;;6.03;4.10;;;7.70;99.90;;;;;;2614934;39;21174;-75
2021/12/19 13:09:29;;;;;;;4.37;3.90;;;7.70;99.90;;;;;;2615291;54;20404;-74
2021/12/19 13:12:01;;;;;;;5.40;4.70;;;7.50;99.90;;;;;;2614800;39;21001;-74
2021/12/19 13:14:29;;;;;;;6.90;5.50;;;7.50;99.90;;;;;;2615826;54;20586;-74
2021/12/19 13:17:02;;;;;;;5.63;5.13;;;7.60;99.90;;;;;;2614188;54;20493;-76
2021/12/19 13:20:06;;;;;;;8.90;6.90;;;7.70;99.90;;;;;;2613139;54;20972;-73
2021/12/19 13:22:38;;;;;;;6.23;5.60;;;8.00;99.90;;;;;;2611717;54;20443;-74
2021/12/19 13:25:12;;;;;;;5.80;4.57;;;7.80;99.90;;;;;;2612665;54;20781;-74
2021/12/19 13:27:44;;;;;;;8.33;4.20;;;7.70;99.90;;;;;;2612641;47;20410;-74
2021/12/19 13:30:13;;;;;;;5.90;4.87;;;7.50;99.90;;;;;;2612127;54;20967;-73
2021/12/19 13:32:46;;;;;;;6.10;4.50;;;7.40;99.90;;;;;;2612938;39;20447;-74
2021/12/19 13:35:16;;;;;;;5.20;4.70;;;7.50;99.90;;;;;;2612792;46;20427;-73
2021/12/19 13:37:48;;;;;;;6.30;4.90;;;7.60;99.90;;;;;;2612978;54;21019;-74
2021/12/19 13:40:14;;;;;;;10.20;5.10;;;7.50;99.90;;;;;;2613799;54;20376;-74
2021/12/19 13:42:42;;;;;;;5.73;4.97;;;7.60;99.90;;;;;;2612529;39;20778;-73
2021/12/19 13:45:43;;;;;;;8.13;4.80;;;7.40;99.90;;;;;;2613047;54;21019;-74
2021/12/19 13:48:32;;;;;;;6.10;5.50;;;7.50;99.90;;;;;;2612712;54;20963;-74
2021/12/19 13:51:11;;;;;;;5.60;5.07;;;7.50;99.90;;;;;;2613596;54;20470;-72
2021/12/19 13:53:40;;;;;;;8.00;5.87;;;7.60;99.90;;;;;;2613646;47;20468;-73
2021/12/19 13:56:15;;;;;;;9.00;5.30;;;7.60;99.90;;;;;;2613793;54;20540;-74
2021/12/19 13:59:00;;;;;;;9.80;5.70;;;7.70;99.90;;;;;;2613341;54;20411;-73
2021/12/19 14:01:34;;;;;;;5.50;3.90;;;7.80;99.90;;;;;;2612357;47;20419;-74
2021/12/19 14:04:16;;;;;;;8.53;5.60;;;7.90;99.90;;;;;;2614004;39;20802;-75
2021/12/19 14:06:44;;;;;;;8.33;4.50;;;7.90;99.90;;;;;;2613007;54;20423;-75
2021/12/19 14:09:22;;;;;;;5.73;4.50;;;8.10;99.90;;;;;;2614120;54;20574;-72
2021/12/19 14:11:56;;;;;;;6.27;5.27;;;7.80;99.90;;;;;;2612085;54;20408;-73